createdAt,value
2018-01-15T00:00:22.276Z,95727.77
2018-01-15T00:02:49.693Z,95720.99
2018-01-15T00:05:17.115Z,95727.23
2018-01-15T00:07:44.532Z,95721.45
2018-01-15T00:10:11.991Z,95720.69
2018-01-15T00:12:39.334Z,95720.65
2018-01-15T00:15:06.776Z,95718.95
2018-01-15T00:17:34.216Z,95721.30
2018-01-15T00:20:01.554Z,95731.53
2018-01-15T00:22:28.937Z,95725.67
2018-01-15T00:24:56.321Z,95734.31
2018-01-15T00:27:23.719Z,95735.56
2018-01-15T00:29:51.101Z,95732.50
2018-01-15T00:32:18.459Z,95737.14
2018-01-15T00:34:45.938Z,95739.66
2018-01-15T00:37:13.299Z,95748.10
2018-01-15T00:39:40.696Z,95741.75
2018-01-15T00:42:08.066Z,95748.45
2018-01-15T00:44:35.451Z,95741.67
2018-01-15T00:47:02.961Z,95738.50
2018-01-15T00:49:30.367Z,95746.14
2018-01-15T00:51:57.812Z,95744.34
2018-01-15T00:54:25.210Z,95742.06
2018-01-15T00:56:52.564Z,95744.11
2018-01-15T00:59:19.945Z,95737.53
2018-01-15T01:01:47.318Z,95731.22
2018-01-15T01:04:14.790Z,95743.73
2018-01-15T01:06:42.135Z,95745.66
2018-01-15T01:09:09.493Z,95743.77
2018-01-15T01:11:36.954Z,95747.80
2018-01-15T01:14:04.367Z,95753.25
2018-01-15T01:16:31.723Z,95748.48
2018-01-15T01:18:59.338Z,95747.76
2018-01-15T01:21:26.813Z,95743.61
2018-01-15T01:23:54.193Z,95751.86
2018-01-15T01:26:21.614Z,95746.32
2018-01-15T01:28:49.011Z,95746.48
2018-01-15T01:31:16.900Z,95741.67
2018-01-15T01:33:44.288Z,95744.92
2018-01-15T01:36:11.770Z,95732.88
2018-01-15T01:38:39.167Z,95722.89
2018-01-15T01:41:06.707Z,95713.44
2018-01-15T01:43:34.090Z,95710.59
2018-01-15T01:46:01.464Z,95714.69
2018-01-15T01:48:28.850Z,95720.84
2018-01-15T01:50:56.224Z,95724.37
2018-01-15T01:53:23.661Z,95709.37
2018-01-15T01:55:51.051Z,95700.39
2018-01-15T01:58:18.911Z,95695.32
2018-01-15T02:00:46.423Z,95691.06
2018-01-15T02:03:13.843Z,95702.84
2018-01-15T02:05:41.224Z,95694.42
2018-01-15T02:08:08.661Z,95696.77
2018-01-15T02:10:36.234Z,95686.46
2018-01-15T02:13:03.843Z,95691.14
2018-01-15T02:15:31.299Z,95691.68
2018-01-15T02:17:58.651Z,95693.97
2018-01-15T02:20:26.107Z,95688.85
2018-01-15T02:22:53.496Z,95686.60
2018-01-15T02:25:20.894Z,95690.98
2018-01-15T02:27:48.335Z,95685.95
2018-01-15T02:30:15.874Z,95692.88
2018-01-15T02:32:43.284Z,95686.17
2018-01-15T02:35:10.714Z,95690.00
2018-01-15T02:37:39.548Z,95693.41
2018-01-15T02:40:07.485Z,95695.73
2018-01-15T02:42:34.851Z,95701.46
2018-01-15T02:45:02.285Z,95692.31
2018-01-15T02:47:29.626Z,95700.22
2018-01-15T02:49:57.078Z,95690.61
2018-01-15T02:52:24.699Z,95690.19
2018-01-15T02:54:52.124Z,95702.23
2018-01-15T02:57:19.526Z,95695.28
2018-01-15T02:59:46.927Z,95694.70
2018-01-15T03:02:14.485Z,95697.06
2018-01-15T03:04:41.875Z,95700.91
2018-01-15T03:07:09.388Z,95692.36
2018-01-15T03:09:36.928Z,95697.22
2018-01-15T03:12:04.282Z,95695.03
2018-01-15T03:14:31.704Z,95685.66
2018-01-15T03:16:59.069Z,95690.99
2018-01-15T03:19:26.490Z,95680.25
2018-01-15T03:21:53.886Z,95688.74
2018-01-15T03:24:21.270Z,95687.23
2018-01-15T03:26:48.698Z,95689.16
2018-01-15T03:29:16.072Z,95690.16
2018-01-15T03:31:43.474Z,95694.11
2018-01-15T03:34:10.884Z,95702.48
2018-01-15T03:36:38.311Z,95688.36
2018-01-15T03:39:05.659Z,95694.80
2018-01-15T03:41:33.099Z,95689.65
2018-01-15T03:44:00.518Z,95696.75
2018-01-15T03:46:27.880Z,95687.33
2018-01-15T03:48:56.300Z,95694.41
2018-01-15T03:51:23.662Z,95688.97
2018-01-15T03:53:51.147Z,95688.30
2018-01-15T03:56:18.548Z,95692.96
2018-01-15T03:58:45.932Z,95704.41
2018-01-15T04:01:13.528Z,95697.63
2018-01-15T04:03:40.889Z,95698.75
2018-01-15T04:06:08.238Z,95708.14
2018-01-15T04:08:35.683Z,95700.27
2018-01-15T04:11:03.056Z,95699.91
2018-01-15T04:13:30.466Z,95699.97
2018-01-15T04:15:58.958Z,95702.99
2018-01-15T04:18:26.395Z,95706.23
2018-01-15T04:20:53.854Z,95698.36
2018-01-15T04:23:21.301Z,95703.60
2018-01-15T04:25:48.756Z,95698.00
2018-01-15T04:28:17.066Z,95698.74
2018-01-15T04:30:44.626Z,95701.50
2018-01-15T04:33:12.175Z,95706.88
2018-01-15T04:35:39.554Z,95709.08
2018-01-15T04:38:08.715Z,95713.66
2018-01-15T04:40:36.154Z,95715.65
2018-01-15T04:43:03.633Z,95711.97
2018-01-15T04:45:31.053Z,95717.08
2018-01-15T04:47:58.417Z,95721.05
2018-01-15T04:50:25.788Z,95724.84
2018-01-15T04:52:53.567Z,95719.48
2018-01-15T04:55:21.006Z,95722.25
2018-01-15T04:57:48.371Z,95710.81
2018-01-15T05:00:15.755Z,95717.61
2018-01-15T05:02:43.185Z,95716.59
2018-01-15T05:05:10.596Z,95710.37
2018-01-15T05:07:38.016Z,95711.51
2018-01-15T05:10:05.378Z,95702.48
2018-01-15T05:12:32.795Z,95695.86
2018-01-15T05:15:00.151Z,95715.55
2018-01-15T05:17:27.776Z,95717.88
2018-01-15T05:19:55.224Z,95728.27
2018-01-15T05:22:22.690Z,95723.52
2018-01-15T05:24:50.056Z,95729.21
2018-01-15T05:27:17.502Z,95735.31
2018-01-15T05:29:46.140Z,95731.00
2018-01-15T05:32:13.620Z,95732.46
2018-01-15T05:34:41.017Z,95732.87
2018-01-15T05:37:08.424Z,95734.27
2018-01-15T05:39:37.104Z,95735.20
2018-01-15T05:42:04.801Z,95739.48
2018-01-15T05:44:32.154Z,95745.10
2018-01-15T05:46:59.571Z,95738.66
2018-01-15T05:49:27.079Z,95746.28
2018-01-15T05:51:54.474Z,95750.10
2018-01-15T05:54:21.951Z,95748.61
2018-01-15T05:56:49.750Z,95754.20
2018-01-15T05:59:17.217Z,95754.66
2018-01-15T06:01:44.907Z,95765.50
2018-01-15T06:04:12.518Z,95752.60
2018-01-15T06:06:39.901Z,95759.02
2018-01-15T06:09:07.405Z,95757.55
2018-01-15T06:11:34.815Z,95759.81
2018-01-15T06:14:02.220Z,95755.45
2018-01-15T06:16:29.756Z,95766.46
2018-01-15T06:18:57.216Z,95760.03
2018-01-15T06:21:24.697Z,95769.52
2018-01-15T06:23:52.146Z,95763.10
2018-01-15T06:26:19.582Z,95766.89
2018-01-15T06:28:46.958Z,95769.03
2018-01-15T06:31:14.414Z,95758.70
2018-01-15T06:33:42.321Z,95761.39
2018-01-15T06:36:09.998Z,95752.39
2018-01-15T06:38:37.714Z,95763.34
2018-01-15T06:41:05.091Z,95776.48
2018-01-15T06:43:32.548Z,95763.41
2018-01-15T06:46:00.252Z,95764.06
2018-01-15T06:48:28.156Z,95769.72
2018-01-15T06:50:55.715Z,95775.78
2018-01-15T06:53:23.187Z,95771.67
2018-01-15T06:55:50.661Z,95784.31
2018-01-15T06:58:18.378Z,95792.52
2018-01-15T07:00:46.683Z,95794.06
2018-01-15T07:03:14.179Z,95795.25
2018-01-15T07:05:43.175Z,95802.23
2018-01-15T07:08:11.206Z,95797.90
2018-01-15T07:10:39.050Z,95795.72
2018-01-15T07:13:06.680Z,95795.39
2018-01-15T07:15:35.657Z,95800.66
2018-01-15T07:18:03.452Z,95805.39
2018-01-15T07:20:30.977Z,95806.61
2018-01-15T07:22:58.967Z,95798.28
2018-01-15T07:25:26.817Z,95794.13
2018-01-15T07:27:54.240Z,95809.25
2018-01-15T07:30:21.721Z,95794.48
2018-01-15T07:32:49.163Z,95807.50
2018-01-15T07:35:16.632Z,95803.28
2018-01-15T07:37:44.295Z,95801.52
2018-01-15T07:40:11.975Z,95789.42
2018-01-15T07:42:39.760Z,95794.46
2018-01-15T07:45:08.506Z,95800.16
2018-01-15T07:47:36.006Z,95803.13
2018-01-15T07:50:03.502Z,95814.68
2018-01-15T07:52:35.611Z,95816.11
2018-01-15T07:55:03.221Z,95821.06
2018-01-15T07:57:30.904Z,95816.88
2018-01-15T08:00:02.505Z,95810.42
2018-01-15T08:02:31.432Z,95804.09
2018-01-15T08:05:00.144Z,95810.47
2018-01-15T08:07:27.978Z,95815.38
2018-01-15T08:09:56.406Z,95825.49
2018-01-15T08:12:26.074Z,95820.21
2018-01-15T08:14:53.698Z,95826.28
2018-01-15T08:17:21.245Z,95825.30
2018-01-15T08:19:48.772Z,95826.73
2018-01-15T08:22:16.464Z,95809.45
2018-01-15T08:24:43.972Z,95823.12
2018-01-15T08:27:11.476Z,95822.39
2018-01-15T08:29:39.117Z,95823.23
2018-01-15T08:32:06.600Z,95819.94
2018-01-15T08:34:36.116Z,95817.36
2018-01-15T08:37:04.659Z,95825.64
2018-01-15T08:39:32.187Z,95819.98
2018-01-15T08:42:00.065Z,95806.65
2018-01-15T08:44:27.985Z,95806.20
2018-01-15T08:46:55.565Z,95813.25
2018-01-15T08:49:23.017Z,95807.96
2018-01-15T08:51:51.333Z,95811.23
2018-01-15T08:56:59.796Z,95801.09
2018-01-15T08:59:27.753Z,95801.83
2018-01-15T09:01:55.367Z,95793.64
2018-01-15T09:04:23.060Z,95784.98
2018-01-15T09:06:50.651Z,95799.45
2018-01-15T09:09:19.249Z,95803.36
2018-01-15T09:11:46.859Z,95809.84
2018-01-15T09:14:14.452Z,95808.89
2018-01-15T09:16:43.677Z,95791.61
2018-01-15T09:19:13.554Z,95797.90
2018-01-15T09:21:41.145Z,95793.59
2018-01-15T09:24:08.702Z,95800.67
2018-01-15T09:26:36.349Z,95799.38
2018-01-15T09:29:03.887Z,95790.06
2018-01-15T09:31:31.472Z,95792.88
2018-01-15T09:33:59.008Z,95798.42
2018-01-15T09:36:26.822Z,95791.34
2018-01-15T09:38:56.103Z,95789.55
2018-01-15T09:41:23.654Z,95783.86
2018-01-15T09:43:51.274Z,95771.36
2018-01-15T09:46:19.648Z,95765.05
2018-01-15T09:48:47.810Z,95774.78
2018-01-15T09:51:16.250Z,95768.55
2018-01-15T09:53:44.466Z,95764.73
2018-01-15T09:56:16.351Z,95769.28
2018-01-15T09:58:46.397Z,95764.14
2018-01-15T10:01:14.771Z,95760.36
2018-01-15T10:03:42.618Z,95757.77
2018-01-15T10:06:10.240Z,95758.52
2018-01-15T10:08:38.911Z,95753.06
2018-01-15T10:11:06.982Z,95760.98
2018-01-15T10:13:38.859Z,95760.42
2018-01-15T10:16:06.597Z,95753.45
2018-01-15T10:18:34.552Z,95750.43
2018-01-15T10:21:04.298Z,95754.75
2018-01-15T10:23:32.352Z,95735.63
2018-01-15T10:26:01.754Z,95740.22
2018-01-15T10:28:29.498Z,95735.65
2018-01-15T10:31:03.082Z,95735.78
2018-01-15T10:33:32.392Z,95732.84
2018-01-15T10:36:06.181Z,95730.56
2018-01-15T10:38:35.548Z,95726.73
2018-01-15T10:41:06.952Z,95724.31
2018-01-15T10:43:35.182Z,95730.00
2018-01-15T10:46:03.424Z,95725.83
2018-01-15T10:48:31.098Z,95733.61
2018-01-15T10:51:00.367Z,95719.79
2018-01-15T10:53:29.317Z,95722.45
2018-01-15T10:55:57.002Z,95712.20
2018-01-15T10:58:24.608Z,95713.36
2018-01-15T11:00:52.501Z,95707.69
2018-01-15T11:03:20.778Z,95704.83
2018-01-15T11:05:48.758Z,95698.20
2018-01-15T11:10:56.835Z,95695.39
2018-01-15T11:13:25.795Z,95694.43
2018-01-15T11:15:54.378Z,95688.92
2018-01-15T11:18:22.390Z,95688.03
2018-01-15T11:20:54.177Z,95679.84
2018-01-15T11:23:22.149Z,95681.94
2018-01-15T11:25:50.246Z,95676.82
2018-01-15T11:28:25.229Z,95668.09
2018-01-15T11:30:53.036Z,95670.42
2018-01-15T11:33:23.322Z,95668.69
2018-01-15T11:35:52.536Z,95678.19
2018-01-15T11:38:20.382Z,95657.15
2018-01-15T11:40:50.446Z,95667.95
2018-01-15T11:43:19.616Z,95655.64
2018-01-15T11:45:49.211Z,95659.25
2018-01-15T11:48:19.600Z,95656.02
2018-01-15T11:50:48.741Z,95639.34
2018-01-15T11:53:16.314Z,95647.89
2018-01-15T11:55:46.160Z,95642.76
2018-01-15T11:58:14.866Z,95631.95
2018-01-15T12:00:43.076Z,95630.64
2018-01-15T12:03:14.184Z,95634.99
2018-01-15T12:05:44.242Z,95630.83
2018-01-15T12:08:12.431Z,95643.70
2018-01-15T12:10:40.379Z,95636.30
2018-01-15T12:13:08.483Z,95633.27
2018-01-15T12:15:36.717Z,95627.80
2018-01-15T12:18:05.228Z,95631.39
2018-01-15T12:20:34.236Z,95630.62
2018-01-15T12:23:02.678Z,95615.84
2018-01-15T12:30:35.553Z,95616.62
2018-01-15T12:33:03.868Z,95612.44
2018-01-15T12:35:31.822Z,95607.88
2018-01-15T12:37:59.321Z,95598.41
2018-01-15T12:45:30.178Z,95591.95
2018-01-15T12:48:00.922Z,95598.22
2018-01-15T12:50:28.699Z,95604.28
2018-01-15T12:52:57.158Z,95599.16
2018-01-15T12:55:26.488Z,95584.20
2018-01-15T12:57:54.345Z,95590.25
2018-01-15T13:00:22.081Z,95591.02
2018-01-15T13:02:50.177Z,95601.42
2018-01-15T13:05:18.042Z,95599.16
2018-01-15T13:07:49.510Z,95594.97
2018-01-15T13:10:17.354Z,95589.50
2018-01-15T13:12:48.645Z,95585.69
2018-01-15T13:15:16.932Z,95585.51
2018-01-15T13:17:45.113Z,95581.72
2018-01-15T13:20:15.388Z,95588.13
2018-01-15T13:22:46.349Z,95587.77
2018-01-15T13:25:14.685Z,95600.44
2018-01-15T13:27:43.084Z,95589.66
2018-01-15T13:30:10.930Z,95578.83
2018-01-15T13:32:38.971Z,95575.23
2018-01-15T13:35:07.701Z,95561.63
2018-01-15T13:37:38.734Z,95568.21
2018-01-15T13:40:06.497Z,95562.55
2018-01-15T13:42:35.927Z,95565.38
2018-01-15T13:45:04.203Z,95569.34
2018-01-15T13:47:32.132Z,95562.17
2018-01-15T13:50:00.904Z,95558.75
2018-01-15T13:52:28.812Z,95544.77
2018-01-15T13:54:57.606Z,95536.19
2018-01-15T13:57:25.190Z,95548.34
2018-01-15T13:59:52.715Z,95550.43
2018-01-15T14:02:22.171Z,95554.03
2018-01-15T14:04:49.775Z,95549.63
2018-01-15T14:07:17.740Z,95548.87
2018-01-15T14:09:54.221Z,95537.69
2018-01-15T14:12:22.197Z,95533.72
2018-01-15T14:14:49.781Z,95532.59
2018-01-15T14:17:17.386Z,95539.41
2018-01-15T14:19:44.988Z,95540.73
2018-01-15T14:22:12.533Z,95543.41
2018-01-15T14:24:40.075Z,95543.41
2018-01-15T14:27:08.559Z,95536.19
2018-01-15T14:29:37.167Z,95530.33
2018-01-15T14:32:05.409Z,95529.00
2018-01-15T14:34:33.285Z,95533.18
2018-01-15T14:37:01.358Z,95522.57
2018-01-15T14:39:29.648Z,95532.00
2018-01-15T14:41:57.120Z,95523.30
2018-01-15T14:44:25.389Z,95531.06
2018-01-15T14:46:54.364Z,95525.02
2018-01-15T14:49:22.784Z,95527.49
2018-01-15T14:51:51.847Z,95524.10
2018-01-15T14:54:19.670Z,95523.30
2018-01-15T14:56:47.376Z,95525.98
2018-01-15T14:59:15.041Z,95517.27
2018-01-15T15:01:42.700Z,95516.70
2018-01-15T15:04:10.716Z,95525.78
2018-01-15T15:06:38.346Z,95521.42
2018-01-15T15:09:06.015Z,95512.55
2018-01-15T15:11:33.554Z,95512.30
2018-01-15T15:14:01.088Z,95517.64
2018-01-15T15:16:28.650Z,95505.70
2018-01-15T15:18:56.461Z,95497.42
2018-01-15T15:21:24.700Z,95507.80
2018-01-15T15:23:52.406Z,95512.75
2018-01-15T15:26:20.223Z,95503.28
2018-01-15T15:28:47.663Z,95502.88
2018-01-15T15:31:15.556Z,95503.49
2018-01-15T15:33:43.968Z,95494.80
2018-01-15T15:36:13.065Z,95481.17
2018-01-15T15:38:44.332Z,95494.41
2018-01-15T15:41:11.817Z,95494.99
2018-01-15T15:43:40.344Z,95491.02
2018-01-15T15:46:08.052Z,95489.13
2018-01-15T15:48:35.944Z,95485.73
2018-01-15T15:51:03.492Z,95496.52
2018-01-15T15:53:31.053Z,95490.09
2018-01-15T15:55:58.614Z,95493.88
2018-01-15T15:58:26.099Z,95501.64
2018-01-15T16:00:53.777Z,95497.45
2018-01-15T16:03:21.479Z,95497.66
2018-01-15T16:05:53.277Z,95491.20
2018-01-15T16:08:20.810Z,95482.88
2018-01-15T16:10:48.244Z,95481.38
2018-01-15T16:13:15.851Z,95484.20
2018-01-15T16:15:43.369Z,95474.16
2018-01-15T16:18:10.942Z,95477.19
2018-01-15T16:20:38.856Z,95467.77
2018-01-15T16:23:06.422Z,95464.15
2018-01-15T16:25:33.986Z,95464.72
2018-01-15T16:28:01.471Z,95464.89
2018-01-15T16:30:28.891Z,95453.34
2018-01-15T16:32:56.626Z,95455.05
2018-01-15T16:35:24.270Z,95463.59
2018-01-15T16:37:52.468Z,95462.27
2018-01-15T16:40:19.981Z,95469.83
2018-01-15T16:42:48.380Z,95462.65
2018-01-15T16:45:15.958Z,95473.63
2018-01-15T16:47:43.396Z,95471.35
2018-01-15T16:50:10.839Z,95473.06
2018-01-15T16:52:38.339Z,95451.89
2018-01-15T16:55:05.873Z,95468.16
2018-01-15T16:57:33.359Z,95460.41
2018-01-15T17:00:00.756Z,95465.89
2018-01-15T17:02:28.223Z,95452.07
2018-01-15T17:04:55.577Z,95443.37
2018-01-15T17:07:23.058Z,95460.02
2018-01-15T17:09:50.725Z,95440.36
2018-01-15T17:12:18.376Z,95448.48
2018-01-15T17:14:45.941Z,95438.64
2018-01-15T17:17:13.461Z,95438.44
2018-01-15T17:19:40.867Z,95441.67
2018-01-15T17:22:08.358Z,95439.02
2018-01-15T17:24:35.755Z,95428.82
2018-01-15T17:27:03.174Z,95435.63
2018-01-15T17:29:30.590Z,95420.50
2018-01-15T17:31:58.425Z,95415.19
2018-01-15T17:34:25.842Z,95418.97
2018-01-15T17:36:53.298Z,95427.30
2018-01-15T17:39:21.784Z,95428.80
2018-01-15T17:41:49.251Z,95427.11
2018-01-15T17:44:16.722Z,95424.81
2018-01-15T17:46:44.142Z,95429.75
2018-01-15T17:49:11.558Z,95421.83
2018-01-15T17:51:38.942Z,95419.74
2018-01-15T17:54:06.345Z,95419.54
2018-01-15T17:56:33.761Z,95416.89
2018-01-15T17:59:01.141Z,95403.63
2018-01-15T18:01:28.642Z,95400.03
2018-01-15T18:03:56.094Z,95404.23
2018-01-15T18:06:23.451Z,95388.13
2018-01-15T18:08:50.840Z,95384.70
2018-01-15T18:11:18.264Z,95370.14
2018-01-15T18:13:45.712Z,95376.78
2018-01-15T18:16:13.122Z,95387.19
2018-01-15T18:18:40.502Z,95387.18
2018-01-15T18:21:07.979Z,95397.59
2018-01-15T18:23:35.350Z,95391.15
2018-01-15T18:26:02.783Z,95389.26
2018-01-15T18:28:30.182Z,95391.14
2018-01-15T18:30:57.841Z,95397.77
2018-01-15T18:33:25.236Z,95383.38
2018-01-15T18:35:52.632Z,95375.63
2018-01-15T18:38:19.972Z,95375.08
2018-01-15T18:40:47.421Z,95361.28
2018-01-15T18:43:14.811Z,95364.11
2018-01-15T18:45:42.202Z,95358.23
2018-01-15T18:48:09.582Z,95360.51
2018-01-15T18:50:37.050Z,95361.08
2018-01-15T18:53:04.431Z,95351.42
2018-01-15T18:55:31.794Z,95351.81
2018-01-15T18:57:59.190Z,95368.63
2018-01-15T19:00:26.550Z,95367.70
2018-01-15T19:02:53.919Z,95364.48
2018-01-15T19:05:21.357Z,95365.98
2018-01-15T19:07:48.732Z,95366.55
2018-01-15T19:10:16.146Z,95351.61
2018-01-15T19:12:43.628Z,95356.53
2018-01-15T19:15:11.048Z,95355.39
2018-01-15T19:17:38.450Z,95358.39
2018-01-15T19:20:05.844Z,95338.94
2018-01-15T19:22:33.236Z,95350.48
2018-01-15T19:25:00.718Z,95343.11
2018-01-15T19:27:28.123Z,95348.19
2018-01-15T19:29:55.563Z,95351.98
2018-01-15T19:32:22.982Z,95341.36
2018-01-15T19:34:50.360Z,95354.43
2018-01-15T19:37:18.417Z,95337.80
2018-01-15T19:39:45.917Z,95344.97
2018-01-15T19:42:13.461Z,95342.70
2018-01-15T19:44:40.830Z,95339.10
2018-01-15T19:47:08.426Z,95354.97
2018-01-15T19:49:35.765Z,95345.13
2018-01-15T19:52:03.157Z,95337.56
2018-01-15T19:54:30.583Z,95357.02
2018-01-15T19:56:57.960Z,95360.98
2018-01-15T19:59:25.360Z,95353.43
2018-01-15T20:01:52.751Z,95364.95
2018-01-15T20:04:20.199Z,95350.78
2018-01-15T20:06:47.554Z,95370.22
2018-01-15T20:09:14.959Z,95360.84
2018-01-15T20:11:42.295Z,95370.47
2018-01-15T20:14:09.735Z,95371.41
2018-01-15T20:16:37.225Z,95367.62
2018-01-15T20:19:04.578Z,95388.98
2018-01-15T20:21:31.972Z,95364.57
2018-01-15T20:23:59.370Z,95381.92
2018-01-15T20:26:26.771Z,95351.67
2018-01-15T20:28:54.185Z,95366.23
2018-01-15T20:31:21.523Z,95339.00
2018-01-15T20:33:48.920Z,95349.56
2018-01-15T20:36:16.437Z,95350.52
2018-01-15T20:38:43.832Z,95351.44
2018-01-15T20:41:11.291Z,95330.28
2018-01-15T20:43:38.700Z,95337.08
2018-01-15T20:46:06.162Z,95321.98
2018-01-15T20:48:33.566Z,95327.06
2018-01-15T20:51:00.989Z,95327.25
2018-01-15T20:53:28.482Z,95329.33
2018-01-15T20:55:55.917Z,95341.03
2018-01-15T20:58:23.338Z,95332.16
2018-01-15T21:00:50.766Z,95328.92
2018-01-15T21:03:18.159Z,95335.16
2018-01-15T21:05:45.562Z,95318.73
2018-01-15T21:08:12.923Z,95317.42
2018-01-15T21:10:40.309Z,95320.42
2018-01-15T21:13:07.855Z,95333.30
2018-01-15T21:15:35.274Z,95332.38
2018-01-15T21:18:02.672Z,95340.68
2018-01-15T21:20:30.040Z,95330.47
2018-01-15T21:22:57.418Z,95321.22
2018-01-15T21:25:24.800Z,95328.22
2018-01-15T21:27:52.207Z,95319.33
2018-01-15T21:30:19.575Z,95326.73
2018-01-15T21:32:47.168Z,95322.95
2018-01-15T21:35:14.583Z,95315.19
2018-01-15T21:37:41.977Z,95299.34
2018-01-15T21:40:09.596Z,95298.78
2018-01-15T21:42:36.975Z,95290.10
2018-01-15T21:45:04.378Z,95295.95
2018-01-15T21:47:31.759Z,95287.64
2018-01-15T21:49:59.119Z,95275.19
2018-01-15T21:52:27.185Z,95312.77
2018-01-15T21:54:54.618Z,95257.23
2018-01-15T21:57:22.055Z,95301.63
2018-01-15T21:59:49.449Z,95260.09
2018-01-15T22:02:16.878Z,95278.23
2018-01-15T22:04:44.480Z,95285.94
2018-01-15T22:07:11.848Z,95275.38
2018-01-15T22:09:39.201Z,95308.62
2018-01-15T22:12:06.626Z,95252.91
2018-01-15T22:14:33.999Z,95290.10
2018-01-15T22:17:01.428Z,95273.13
2018-01-15T22:19:28.830Z,95278.42
2018-01-15T22:21:56.189Z,95268.20
2018-01-15T22:24:23.667Z,95265.00
2018-01-15T22:26:51.059Z,95241.97
2018-01-15T22:29:18.454Z,95256.31
2018-01-15T22:31:45.859Z,95246.11
2018-01-15T22:34:13.297Z,95258.77
2018-01-15T22:36:40.646Z,95236.67
2018-01-15T22:39:08.053Z,95248.39
2018-01-15T22:41:35.474Z,95256.32
2018-01-15T22:44:02.834Z,95236.11
2018-01-15T22:46:30.236Z,95255.17
2018-01-15T22:48:57.590Z,95228.73
2018-01-15T22:51:24.997Z,95242.55
2018-01-15T22:53:52.329Z,95201.37
2018-01-15T22:56:19.676Z,95217.39
2018-01-15T22:58:47.090Z,95203.44
2018-01-15T23:01:14.474Z,95194.54
2018-01-15T23:03:41.996Z,95195.67
2018-01-15T23:06:09.466Z,95210.77
2018-01-15T23:08:36.846Z,95189.03
2018-01-15T23:11:04.198Z,95192.81
2018-01-15T23:13:31.672Z,95177.71
2018-01-15T23:15:59.137Z,95160.74
2018-01-15T23:18:26.507Z,95168.87
2018-01-15T23:20:53.912Z,95180.73
2018-01-15T23:23:21.427Z,95156.77
2018-01-15T23:25:48.818Z,95169.22
2018-01-15T23:28:16.183Z,95157.13
2018-01-15T23:30:43.728Z,95161.66
2018-01-15T23:33:11.199Z,95169.01
2018-01-15T23:35:38.561Z,95159.58
2018-01-15T23:38:05.964Z,95164.30
2018-01-15T23:40:33.347Z,95159.38
2018-01-15T23:43:00.706Z,95173.52
2018-01-15T23:45:28.145Z,95156.57
2018-01-15T23:47:55.565Z,95160.69
2018-01-15T23:50:22.940Z,95153.67
2018-01-15T23:52:50.378Z,95135.95
2018-01-15T23:55:17.779Z,95158.20
2018-01-15T23:57:45.209Z,95151.22
